createdAt,value
2023-04-29T00:03:49.223Z,99411.55
2023-04-29T00:07:46.710Z,99410.09
2023-04-29T00:11:45.727Z,99407.00
2023-04-29T00:15:43.695Z,99407.16
2023-04-29T00:19:41.778Z,99399.59
2023-04-29T00:23:39.709Z,99399.70
2023-04-29T00:27:37.742Z,99397.36
2023-04-29T00:31:35.795Z,99397.98
2023-04-29T00:35:33.683Z,99396.72
2023-04-29T00:39:31.720Z,99393.37
2023-04-29T00:43:29.802Z,99392.52
2023-04-29T00:47:27.664Z,99388.27
2023-04-29T00:51:26.782Z,99389.81
2023-04-29T00:55:26.670Z,99384.17
2023-04-29T00:59:24.692Z,99384.80
2023-04-29T01:03:24.268Z,99383.50
2023-04-29T01:07:35.619Z,99390.23
2023-04-29T01:11:37.673Z,99394.90
2023-04-29T01:15:47.660Z,99393.80
2023-04-29T01:19:59.601Z,99392.91
2023-04-29T01:24:02.668Z,99392.08
2023-04-29T01:28:22.605Z,99392.52
2023-04-29T01:32:23.631Z,99389.89
2023-04-29T01:36:46.646Z,99385.80
2023-04-29T01:41:03.725Z,99382.75
2023-04-29T01:45:03.591Z,99384.66
2023-04-29T01:49:01.679Z,99383.53
2023-04-29T01:52:59.551Z,99379.44
2023-04-29T01:56:58.645Z,99379.55
2023-04-29T02:01:22.638Z,99376.09
2023-04-29T02:05:20.605Z,99374.14
2023-04-29T02:09:21.585Z,99370.43
2023-04-29T02:13:23.647Z,99372.19
2023-04-29T02:17:21.569Z,99369.67
2023-04-29T02:21:19.607Z,99367.63
2023-04-29T02:25:17.530Z,99364.48
2023-04-29T02:29:15.596Z,99364.52
2023-04-29T02:33:13.583Z,99364.33
2023-04-29T02:37:12.668Z,99358.03
2023-04-29T02:41:10.544Z,99354.52
2023-04-29T02:45:08.504Z,99353.59
2023-04-29T02:49:06.496Z,99349.46
2023-04-29T02:53:05.594Z,99346.27
2023-04-29T02:57:03.637Z,99343.96
2023-04-29T03:01:01.598Z,99342.02
2023-04-29T03:04:59.487Z,99337.64
2023-04-29T03:08:57.507Z,99341.87
2023-04-29T03:12:55.442Z,99339.46
2023-04-29T03:16:55.558Z,99338.99
2023-04-29T03:20:53.603Z,99342.36
2023-04-29T03:24:52.557Z,99347.63
2023-04-29T03:28:50.428Z,99350.64
2023-04-29T03:32:48.583Z,99357.09
2023-04-29T03:36:46.437Z,99355.06
2023-04-29T03:40:44.463Z,99359.98
2023-04-29T03:44:43.512Z,99357.33
2023-04-29T03:48:41.429Z,99357.21
2023-04-29T03:52:39.493Z,99356.41
2023-04-29T03:56:39.409Z,99357.15
2023-04-29T04:00:37.395Z,99355.05
2023-04-29T04:04:38.685Z,99357.77
2023-04-29T04:08:36.356Z,99359.61
2023-04-29T04:12:38.396Z,99359.16
2023-04-29T04:16:36.404Z,99357.05
2023-04-29T04:20:34.481Z,99353.48
2023-04-29T04:24:33.356Z,99352.34
2023-04-29T04:28:31.409Z,99353.41
2023-04-29T04:32:33.438Z,99348.84
2023-04-29T04:36:31.380Z,99350.75
2023-04-29T04:40:30.473Z,99343.98
2023-04-29T04:44:47.362Z,99340.19
2023-04-29T04:48:55.368Z,99337.21
2023-04-29T04:52:56.460Z,99340.50
2023-04-29T04:57:07.456Z,99334.27
2023-04-29T05:01:06.384Z,99338.55
2023-04-29T05:05:04.438Z,99339.14
2023-04-29T05:09:03.343Z,99339.95
2023-04-29T05:13:01.406Z,99337.04
2023-04-29T05:16:59.456Z,99336.48
2023-04-29T05:20:57.370Z,99337.13
2023-04-29T05:24:56.364Z,99336.02
2023-04-29T05:28:55.322Z,99329.85
2023-04-29T05:32:55.340Z,99334.17
2023-04-29T05:36:53.273Z,99334.02
2023-04-29T05:40:51.303Z,99332.39
2023-04-29T05:45:06.339Z,99333.12
2023-04-29T05:49:04.413Z,99332.46
2023-04-29T05:53:03.285Z,99330.63
2023-04-29T05:57:01.396Z,99334.49
2023-04-29T06:01:00.057Z,99329.48
2023-04-29T06:04:59.552Z,99326.70
2023-04-29T06:09:19.871Z,99326.27
2023-04-29T06:13:28.260Z,99321.79
2023-04-29T06:17:26.336Z,99320.05
2023-04-29T06:21:24.293Z,99323.45
2023-04-29T06:25:24.330Z,99325.73
2023-04-29T06:29:25.282Z,99321.72
2023-04-29T06:33:23.242Z,99322.35
2023-04-29T06:37:21.342Z,99319.53
2023-04-29T06:41:51.182Z,99319.93
2023-04-29T06:46:11.213Z,99320.71
2023-04-29T06:50:41.190Z,99321.02
2023-04-29T06:54:40.210Z,99320.69
2023-04-29T06:58:38.258Z,99323.59
2023-04-29T07:02:36.256Z,99321.60
2023-04-29T07:06:34.134Z,99321.66
2023-04-29T07:10:33.233Z,99317.64
2023-04-29T07:14:31.175Z,99321.61
2023-04-29T07:18:29.283Z,99317.47
2023-04-29T07:22:27.151Z,99314.60
2023-04-29T07:26:29.265Z,99319.56
2023-04-29T07:30:27.220Z,99318.36
2023-04-29T07:34:25.291Z,99316.61
2023-04-29T07:38:23.130Z,99313.86
2023-04-29T07:42:22.174Z,99309.89
2023-04-29T07:46:20.126Z,99308.11
2023-04-29T07:50:18.235Z,99305.77
2023-04-29T07:54:16.116Z,99301.10
2023-04-29T07:58:14.292Z,99301.98
2023-04-29T08:02:12.182Z,99300.63
2023-04-29T08:06:16.215Z,99301.67
2023-04-29T08:10:14.176Z,99308.98
2023-04-29T08:14:12.110Z,99305.69
2023-04-29T08:18:10.131Z,99302.41
2023-04-29T08:22:11.218Z,99303.21
2023-04-29T08:26:10.116Z,99298.13
2023-04-29T08:30:08.137Z,99296.98
2023-04-29T08:34:07.164Z,99297.09
2023-04-29T08:37:44.791Z,99294.96
2023-04-29T08:41:29.125Z,99290.67
2023-04-29T08:45:30.155Z,99289.08
2023-04-29T08:49:28.211Z,99289.82
2023-04-29T08:53:28.155Z,99289.99
2023-04-29T08:57:26.164Z,99284.84
2023-04-29T09:01:25.219Z,99279.73
2023-04-29T09:05:24.044Z,99275.98
2023-04-29T09:09:22.078Z,99276.05
2023-04-29T09:13:20.042Z,99277.42
2023-04-29T09:17:18.099Z,99281.77
2023-04-29T09:21:31.988Z,99286.86
2023-04-29T09:25:30.129Z,99282.43
2023-04-29T09:29:29.051Z,99283.46
2023-04-29T09:33:27.048Z,99282.07
2023-04-29T09:37:42.132Z,99281.01
2023-04-29T09:41:40.093Z,99273.45
2023-04-29T09:45:55.179Z,99276.70
2023-04-29T09:49:58.143Z,99275.08
2023-04-29T09:53:56.023Z,99272.20
2023-04-29T09:57:55.058Z,99276.06
2023-04-29T10:01:53.109Z,99274.24
2023-04-29T10:05:54.050Z,99268.61
2023-04-29T10:09:53.987Z,99259.89
2023-04-29T10:13:57.013Z,99259.16
2023-04-29T10:18:00.998Z,99261.71
2023-04-29T10:21:58.980Z,99259.92
2023-04-29T10:25:59.001Z,99253.98
2023-04-29T10:29:58.011Z,99250.85
2023-04-29T10:33:58.955Z,99248.54
2023-04-29T10:38:00.039Z,99247.05
2023-04-29T10:42:01.975Z,99242.48
2023-04-29T10:46:00.073Z,99241.89
2023-04-29T10:50:15.949Z,99237.31
2023-04-29T10:54:15.067Z,99235.38
2023-04-29T10:58:12.903Z,99231.81
2023-04-29T11:02:11.106Z,99230.30
2023-04-29T11:06:23.950Z,99227.48
2023-04-29T11:10:22.029Z,99226.09
2023-04-29T11:14:19.969Z,99217.55
2023-04-29T11:18:17.987Z,99221.16
2023-04-29T11:22:34.043Z,99217.07
2023-04-29T11:26:34.043Z,99216.12
2023-04-29T11:30:32.884Z,99212.55
2023-04-29T11:34:30.930Z,99209.06
2023-04-29T11:38:28.854Z,99209.11
2023-04-29T11:42:26.960Z,99203.16
2023-04-29T11:46:29.005Z,99206.11
2023-04-29T11:50:28.140Z,99209.77
2023-04-29T11:54:25.843Z,99196.52
2023-04-29T11:58:24.004Z,99194.40
2023-04-29T12:02:22.969Z,99194.83
2023-04-29T12:06:20.877Z,99185.07
2023-04-29T12:10:21.911Z,99180.33
2023-04-29T12:14:20.007Z,99174.89
2023-04-29T12:18:17.849Z,99173.42
2023-04-29T12:22:17.904Z,99167.86
2023-04-29T12:26:15.832Z,99163.38
2023-04-29T12:30:13.853Z,99157.25
2023-04-29T12:34:11.845Z,99154.33
2023-04-29T12:38:12.890Z,99151.93
2023-04-29T12:42:12.921Z,99147.61
2023-04-29T12:46:24.853Z,99141.88
2023-04-29T12:50:22.810Z,99139.95
2023-04-29T12:54:20.826Z,99135.89
2023-04-29T12:58:19.786Z,99127.01
2023-04-29T13:02:18.936Z,99121.48
2023-04-29T13:06:16.786Z,99116.55
2023-04-29T13:10:14.818Z,99121.46
2023-04-29T13:14:14.788Z,99123.66
2023-04-29T13:18:12.861Z,99123.15
2023-04-29T13:22:10.772Z,99122.73
2023-04-29T13:26:08.811Z,99119.10
2023-04-29T13:30:07.852Z,99110.48
2023-04-29T13:34:09.625Z,99112.47
2023-04-29T13:38:07.765Z,99110.26
2023-04-29T13:42:05.753Z,99106.36
2023-04-29T13:46:03.803Z,99106.58
2023-04-29T13:54:41.250Z,99108.33
2023-04-29T14:02:25.660Z,99106.11
2023-04-29T14:06:23.801Z,99111.86
2023-04-29T14:10:21.720Z,99105.73
2023-04-29T14:14:19.749Z,99099.20
2023-04-29T14:18:18.723Z,99090.80
2023-04-29T14:22:16.840Z,99094.27
2023-04-29T14:26:27.714Z,99088.52
2023-04-29T14:30:26.758Z,99076.81
2023-04-29T14:34:04.364Z,99068.14
2023-04-29T14:37:28.155Z,99073.59
2023-04-29T14:40:52.053Z,99072.68
2023-04-29T14:44:16.016Z,99069.42
2023-04-29T14:47:39.992Z,99066.67
2023-04-29T14:51:03.957Z,99073.22
2023-04-29T14:54:27.993Z,99073.35
2023-04-29T14:57:51.795Z,99068.45
2023-04-29T15:01:15.887Z,99059.64
2023-04-29T15:04:45.679Z,99062.08
2023-04-29T15:08:09.758Z,99057.70
2023-04-29T15:11:33.893Z,99060.52
2023-04-29T15:14:57.759Z,99060.84
2023-04-29T15:18:23.390Z,99059.92
2023-04-29T15:21:47.303Z,99061.77
2023-04-29T15:25:11.393Z,99060.22
2023-04-29T15:28:35.777Z,99054.83
2023-04-29T15:31:59.767Z,99055.09
2023-04-29T15:35:23.751Z,99057.17
2023-04-29T15:38:47.690Z,99051.38
2023-04-29T15:42:11.576Z,99055.08
2023-04-29T15:45:35.560Z,99050.70
2023-04-29T15:48:59.419Z,99045.81
2023-04-29T15:52:24.536Z,99045.20
2023-04-29T15:55:48.419Z,99042.73
2023-04-29T15:59:12.400Z,99046.29
2023-04-29T16:02:36.337Z,99042.72
2023-04-29T16:06:00.650Z,99042.67
2023-04-29T16:09:44.636Z,99048.61
2023-04-29T16:13:42.631Z,99039.89
2023-04-29T16:17:40.766Z,99040.29
2023-04-29T16:21:39.663Z,99048.83
2023-04-29T16:25:37.636Z,99050.96
2023-04-29T16:29:35.638Z,99056.79
2023-04-29T16:33:33.585Z,99057.27
2023-04-29T16:37:31.599Z,99064.83
2023-04-29T16:41:30.595Z,99063.33
2023-04-29T16:45:28.685Z,99066.66
2023-04-29T16:49:26.589Z,99073.27
2023-04-29T16:53:24.557Z,99078.97
2023-04-29T16:57:22.548Z,99079.64
2023-04-29T17:01:20.708Z,99080.77
2023-04-29T17:05:18.564Z,99084.41
2023-04-29T17:09:16.577Z,99086.10
2023-04-29T17:13:17.523Z,99091.65
2023-04-29T17:17:17.638Z,99096.38
2023-04-29T17:21:16.645Z,99100.85
2023-04-29T17:25:14.782Z,99101.48
2023-04-29T17:29:12.729Z,99106.67
2023-04-29T17:33:12.616Z,99104.33
2023-04-29T17:37:10.606Z,99107.56
2023-04-29T17:41:08.534Z,99105.48
2023-04-29T17:45:06.570Z,99106.54
2023-04-29T17:49:04.584Z,99109.98
2023-04-29T17:53:02.619Z,99109.48
2023-04-29T17:57:01.634Z,99112.98
2023-04-29T18:01:00.530Z,99116.64
2023-04-29T18:04:58.618Z,99117.58
2023-04-29T18:08:56.476Z,99120.70
2023-04-29T18:12:55.683Z,99123.95
2023-04-29T18:16:53.542Z,99127.11
2023-04-29T18:20:51.557Z,99132.83
2023-04-29T18:24:50.551Z,99140.12
2023-04-29T18:28:48.640Z,99140.39
2023-04-29T18:32:46.441Z,99141.29
2023-04-29T18:36:44.461Z,99140.79
2023-04-29T18:40:43.585Z,99142.08
2023-04-29T18:44:41.606Z,99137.92
2023-04-29T18:48:39.540Z,99141.86
2023-04-29T18:52:37.525Z,99142.08
2023-04-29T18:56:35.407Z,99141.30
2023-04-29T19:00:33.574Z,99145.52
2023-04-29T19:04:32.553Z,99144.77
2023-04-29T19:08:32.433Z,99145.08
2023-04-29T19:12:31.508Z,99146.61
2023-04-29T19:16:29.501Z,99149.69
2023-04-29T19:20:27.396Z,99149.05
2023-04-29T19:24:25.558Z,99147.48
2023-04-29T19:28:23.467Z,99144.04
2023-04-29T19:32:21.621Z,99142.61
2023-04-29T19:36:21.547Z,99145.92
2023-04-29T19:40:21.973Z,99143.09
2023-04-29T19:44:12.588Z,99147.31
2023-04-29T19:48:11.461Z,99149.36
2023-04-29T19:52:16.415Z,99147.98
2023-04-29T19:56:14.371Z,99149.80
2023-04-29T20:00:12.708Z,99153.78
2023-04-29T20:04:12.605Z,99154.05
2023-04-29T20:08:10.342Z,99153.04
2023-04-29T20:12:10.413Z,99149.23
2023-04-29T20:16:08.357Z,99147.02
2023-04-29T20:20:08.370Z,99145.65
2023-04-29T20:24:07.418Z,99146.23
2023-04-29T20:28:05.391Z,99148.12
2023-04-29T20:32:03.409Z,99149.73
2023-04-29T20:36:01.453Z,99149.01
2023-04-29T20:39:59.330Z,99147.01
2023-04-29T20:43:57.433Z,99142.82
2023-04-29T20:47:56.324Z,99146.14
2023-04-29T20:51:55.521Z,99141.36
2023-04-29T20:55:53.302Z,99142.77
2023-04-29T20:59:51.528Z,99137.88
2023-04-29T21:03:49.361Z,99142.66
2023-04-29T21:07:47.279Z,99141.73
2023-04-29T21:11:46.338Z,99144.45
2023-04-29T21:15:46.368Z,99149.36
2023-04-29T21:19:44.215Z,99153.20
2023-04-29T21:23:42.285Z,99150.50
2023-04-29T21:27:40.263Z,99151.07
2023-04-29T21:31:38.354Z,99149.77
2023-04-29T21:35:36.228Z,99145.52
2023-04-29T21:39:34.233Z,99143.61
2023-04-29T21:43:32.431Z,99139.87
2023-04-29T21:47:33.390Z,99142.02
2023-04-29T21:51:31.192Z,99141.26
2023-04-29T21:55:29.325Z,99138.67
2023-04-29T21:59:27.227Z,99138.63
2023-04-29T22:03:25.328Z,99138.45
2023-04-29T22:07:23.228Z,99140.51
2023-04-29T22:11:23.288Z,99138.27
2023-04-29T22:15:28.663Z,99137.89
2023-04-29T22:19:27.198Z,99130.30
2023-04-29T22:23:25.213Z,99131.73
2023-04-29T22:27:23.305Z,99130.23
2023-04-29T22:31:22.222Z,99131.73
2023-04-29T22:35:20.172Z,99130.01
2023-04-29T22:39:18.097Z,99129.33
2023-04-29T22:43:16.192Z,99125.14
2023-04-29T22:47:14.205Z,99119.99
2023-04-29T22:51:13.193Z,99120.25
2023-04-29T22:55:11.159Z,99120.91
2023-04-29T22:59:09.185Z,99114.34
2023-04-29T23:03:07.223Z,99116.13
2023-04-29T23:07:05.237Z,99114.78
2023-04-29T23:11:04.153Z,99113.81
2023-04-29T23:15:02.255Z,99112.21
2023-04-29T23:19:01.131Z,99108.71
2023-04-29T23:22:59.127Z,99107.11
2023-04-29T23:26:57.179Z,99106.50
2023-04-29T23:30:55.237Z,99105.56
2023-04-29T23:34:53.072Z,99104.79
2023-04-29T23:38:51.101Z,99101.90
2023-04-29T23:42:49.032Z,99098.11
2023-04-29T23:46:47.246Z,99095.23
2023-04-29T23:50:45.614Z,99098.23
2023-04-29T23:54:43.140Z,99097.27
2023-04-29T23:58:41.053Z,99095.12
